createdAt,value
2018-05-21T00:00:09.740Z,62.49
2018-05-21T00:01:18.604Z,62.4
2018-05-21T00:02:27.795Z,62.27
2018-05-21T00:03:36.935Z,62.65
2018-05-21T00:04:45.796Z,62.65
2018-05-21T00:05:54.657Z,62.27
2018-05-21T00:07:03.519Z,62.46
2018-05-21T00:08:12.705Z,62.46
2018-05-21T00:09:21.574Z,63.23
2018-05-21T00:10:30.433Z,63.32
2018-05-21T00:11:39.569Z,63.23
2018-05-21T00:12:48.714Z,63.23
2018-05-21T00:13:57.628Z,63.23
2018-05-21T00:15:06.485Z,63.6
2018-05-21T00:16:15.623Z,63.8
2018-05-21T00:17:24.483Z,63.89
2018-05-21T00:18:33.342Z,63.51
2018-05-21T00:19:42.357Z,64.37
2018-05-21T00:20:51.497Z,64.47
2018-05-21T00:22:00.912Z,64.28
2018-05-21T00:23:09.777Z,63.67
2018-05-21T00:24:18.641Z,65.01
2018-05-21T00:25:28.204Z,65.3
2018-05-21T00:26:37.340Z,65.87
2018-05-21T00:27:46.481Z,65.48
2018-05-21T00:28:55.622Z,64.72
2018-05-21T00:30:04.488Z,65.3
2018-05-21T00:31:13.722Z,65.3
2018-05-21T00:32:22.584Z,65.11
2018-05-21T00:33:31.446Z,64.91
2018-05-21T00:34:40.308Z,65.3
2018-05-21T00:35:49.724Z,64.53
2018-05-21T00:36:58.637Z,64.91
2018-05-21T00:38:07.788Z,66.06
2018-05-21T00:39:16.929Z,65.68
2018-05-21T00:40:25.792Z,66.06
2018-05-21T00:41:34.653Z,66.06
2018-05-21T00:42:43.944Z,65.77
2018-05-21T00:43:53.416Z,66.83
2018-05-21T00:45:02.226Z,66.44
2018-05-21T00:46:11.094Z,66.83
2018-05-21T00:47:20.230Z,67.11
2018-05-21T00:48:29.242Z,66.73
2018-05-21T00:49:38.381Z,67.3
2018-05-21T00:50:47.244Z,67.49
2018-05-21T00:51:56.106Z,68.16
2018-05-21T00:53:04.967Z,68.04
2018-05-21T00:54:14.027Z,67.65
2018-05-21T00:55:22.888Z,67.59
2018-05-21T00:56:31.749Z,67.78
2018-05-21T00:57:40.610Z,68.07
2018-05-21T00:58:49.469Z,69.09
2018-05-21T00:59:59.238Z,68.7
2018-05-21T01:01:08.095Z,68.51
2018-05-21T01:02:16.957Z,67.94
2018-05-21T01:03:25.818Z,68.7
2018-05-21T01:04:34.680Z,69.09
2018-05-21T01:05:43.891Z,68.8
2018-05-21T01:06:52.756Z,68.61
2018-05-21T01:08:01.614Z,69.47
2018-05-21T01:09:10.478Z,69.27
2018-05-21T01:10:19.610Z,69.37
2018-05-21T01:11:28.748Z,68.7
2018-05-21T01:12:37.666Z,69.18
2018-05-21T01:13:46.804Z,69.27
2018-05-21T01:14:55.664Z,69.95
2018-05-21T01:16:04.527Z,68.13
2018-05-21T01:17:13.482Z,68.99
2018-05-21T01:18:22.345Z,69.37
2018-05-21T01:19:31.206Z,69.66
2018-05-21T01:20:40.070Z,69.66
2018-05-21T01:21:48.927Z,70.52
2018-05-21T01:22:57.791Z,70.23
2018-05-21T01:24:06.650Z,70.48
2018-05-21T01:25:15.508Z,70.2
2018-05-21T01:26:25.030Z,70.9
2018-05-21T01:27:33.894Z,71.06
2018-05-21T01:28:43.208Z,71.34
2018-05-21T01:29:52.070Z,71.28
2018-05-21T01:31:00.931Z,71.63
2018-05-21T01:32:09.791Z,71.44
2018-05-21T01:33:18.930Z,71.44
2018-05-21T01:34:27.993Z,71.72
2018-05-21T01:35:36.853Z,71.44
2018-05-21T01:36:45.713Z,71.25
2018-05-21T01:37:54.573Z,71.34
2018-05-21T01:39:03.431Z,71.53
2018-05-21T01:40:12.928Z,71.44
2018-05-21T01:41:21.790Z,71.82
2018-05-21T01:42:30.649Z,72.2
2018-05-21T01:43:39.511Z,72.49
2018-05-21T01:44:48.371Z,72.2
2018-05-21T01:45:57.282Z,71.44
2018-05-21T01:47:06.424Z,71.15
2018-05-21T01:48:15.288Z,71.82
2018-05-21T01:49:24.157Z,72.3
2018-05-21T01:50:33.290Z,71.63
2018-05-21T01:51:42.200Z,71.53
2018-05-21T01:52:51.058Z,72.11
2018-05-21T01:54:00.196Z,72.11
2018-05-21T01:55:09.058Z,72.78
2018-05-21T01:56:17.916Z,73.63
2018-05-21T01:57:26.778Z,73.07
2018-05-21T01:58:35.639Z,73.07
2018-05-21T01:59:44.776Z,72.97
2018-05-21T02:00:53.635Z,73.35
2018-05-21T02:02:02.500Z,73.44
2018-05-21T02:03:12.024Z,73.73
2018-05-21T02:04:21.165Z,74.49
2018-05-21T02:05:30.299Z,73.25
2018-05-21T02:06:39.159Z,73.35
2018-05-21T02:07:48.023Z,74.11
2018-05-21T02:08:57.231Z,74.3
2018-05-21T02:10:06.371Z,73.92
2018-05-21T02:11:15.230Z,74.88
2018-05-21T02:12:24.090Z,74.78
2018-05-21T02:13:32.948Z,74.11
2018-05-21T02:14:42.141Z,73.44
2018-05-21T02:15:51.000Z,74.02
2018-05-21T02:16:59.866Z,74.4
2018-05-21T02:18:08.727Z,74.4
2018-05-21T02:19:17.588Z,74.59
2018-05-21T02:20:26.799Z,74.08
2018-05-21T02:21:35.661Z,74.98
2018-05-21T02:22:44.801Z,75.03
2018-05-21T02:23:54.227Z,75.42
2018-05-21T02:25:03.362Z,74.74
2018-05-21T02:26:12.930Z,74.46
2018-05-21T02:27:21.788Z,74.74
2018-05-21T02:28:30.651Z,74.84
2018-05-21T02:29:39.510Z,74.74
2018-05-21T02:30:48.377Z,75.13
2018-05-21T02:31:57.718Z,74.93
2018-05-21T02:33:06.579Z,74.84
2018-05-21T02:34:15.445Z,75.22
2018-05-21T02:35:24.891Z,75.22
2018-05-21T02:36:34.589Z,75.79
2018-05-21T02:37:44.115Z,75.32
2018-05-21T02:38:53.539Z,75.79
2018-05-21T02:40:02.977Z,75.7
2018-05-21T02:41:11.839Z,76.46
2018-05-21T02:42:21.261Z,75.7
2018-05-21T02:43:30.502Z,77.23
2018-05-21T02:44:39.371Z,77.7
2018-05-21T02:45:48.509Z,76.94
2018-05-21T02:46:57.644Z,75.89
2018-05-21T02:48:06.793Z,76.94
2018-05-21T02:49:15.799Z,77.03
2018-05-21T02:50:24.935Z,77.23
2018-05-21T02:51:33.795Z,77.99
2018-05-21T02:52:42.659Z,77.7
2018-05-21T02:53:51.800Z,77.8
2018-05-21T02:55:01.320Z,77.99
2018-05-21T02:56:10.454Z,77.8
2018-05-21T02:57:19.317Z,78.56
2018-05-21T02:58:28.459Z,78.47
2018-05-21T02:59:37.321Z,78.37
2018-05-21T03:00:46.510Z,78.43
2018-05-21T03:01:55.367Z,78.18
2018-05-21T03:03:04.225Z,78.66
2018-05-21T03:04:13.366Z,78.37
2018-05-21T03:05:22.503Z,78.91
2018-05-21T03:06:31.409Z,78.66
2018-05-21T03:07:40.273Z,79
2018-05-21T03:08:49.412Z,79.19
2018-05-21T03:09:58.272Z,78.91
2018-05-21T03:11:07.134Z,79.57
2018-05-21T03:12:16.143Z,79.19
2018-05-21T03:13:25.005Z,78.62
2018-05-21T03:14:33.864Z,78.81
2018-05-21T03:15:42.996Z,79.19
2018-05-21T03:16:52.134Z,79.19
2018-05-21T03:18:00.993Z,79.67
2018-05-21T03:19:09.852Z,79.48
2018-05-21T03:20:18.710Z,79.67
2018-05-21T03:21:27.570Z,79.48
2018-05-21T03:22:36.430Z,79.38
2018-05-21T03:23:45.289Z,80.24
2018-05-21T03:24:54.150Z,80.81
2018-05-21T03:26:03.013Z,80.05
2018-05-21T03:27:11.872Z,80.53
2018-05-21T03:28:20.731Z,80.72
2018-05-21T03:29:29.943Z,81.01
2018-05-21T03:30:38.800Z,80.72
2018-05-21T03:31:47.957Z,80.53
2018-05-21T03:32:56.812Z,80.33
2018-05-21T03:34:05.675Z,80.43
2018-05-21T03:35:14.914Z,80.81
2018-05-21T03:36:24.060Z,80.72
2018-05-21T03:37:32.917Z,81.96
2018-05-21T03:38:42.058Z,81.2
2018-05-21T03:39:51.197Z,81.1
2018-05-21T03:41:00.057Z,80.43
2018-05-21T03:42:08.918Z,81.29
2018-05-21T03:43:18.056Z,81.1
2018-05-21T03:44:26.915Z,81.96
2018-05-21T03:45:35.774Z,82.34
2018-05-21T03:46:44.635Z,81.48
2018-05-21T03:47:53.496Z,81.38
2018-05-21T03:49:02.637Z,81.58
2018-05-21T03:50:11.502Z,82.34
2018-05-21T03:51:20.362Z,81.67
2018-05-21T03:52:29.699Z,82.06
2018-05-21T03:53:38.562Z,82.63
2018-05-21T03:54:47.702Z,82.72
2018-05-21T03:55:56.561Z,82.06
2018-05-21T03:57:05.468Z,82.53
2018-05-21T03:58:14.379Z,82.82
2018-05-21T03:59:23.238Z,82.15
2018-05-21T04:00:32.098Z,81.1
2018-05-21T04:01:40.958Z,82.34
2018-05-21T04:02:49.820Z,82.43
2018-05-21T04:03:58.780Z,82.15
2018-05-21T04:05:07.640Z,82.34
2018-05-21T04:06:16.784Z,82.91
2018-05-21T04:07:25.648Z,83.11
2018-05-21T04:08:34.778Z,83.2
2018-05-21T04:09:43.689Z,83.48
2018-05-21T04:10:52.550Z,83.58
2018-05-21T04:12:01.517Z,82.91
2018-05-21T04:13:10.831Z,83.01
2018-05-21T04:14:19.692Z,82.91
2018-05-21T04:15:28.827Z,82.06
2018-05-21T04:16:37.688Z,82.43
2018-05-21T04:17:46.547Z,82.43
2018-05-21T04:18:55.408Z,82.91
2018-05-21T04:20:04.266Z,82.53
2018-05-21T04:21:13.227Z,83.2
2018-05-21T04:22:22.642Z,82.82
2018-05-21T04:23:31.503Z,83.48
2018-05-21T04:24:40.362Z,83.29
2018-05-21T04:25:49.499Z,83.39
2018-05-21T04:26:58.510Z,82.91
2018-05-21T04:28:07.370Z,83.11
2018-05-21T04:29:16.233Z,83.39
2018-05-21T04:30:25.092Z,83.01
2018-05-21T04:31:33.953Z,82.72
2018-05-21T04:32:42.864Z,83.67
2018-05-21T04:33:51.723Z,83.58
2018-05-21T04:35:00.860Z,83.77
2018-05-21T04:36:10.274Z,84.16
2018-05-21T04:37:19.134Z,83.2
2018-05-21T04:38:28.244Z,83.11
2018-05-21T04:39:37.437Z,83.58
2018-05-21T04:40:46.298Z,83.48
2018-05-21T04:41:55.435Z,83.87
2018-05-21T04:43:04.298Z,83.87
2018-05-21T04:44:13.214Z,84.16
2018-05-21T04:45:22.075Z,83.77
2018-05-21T04:46:30.929Z,83.48
2018-05-21T04:47:40.069Z,83.96
2018-05-21T04:48:48.930Z,84.63
2018-05-21T04:49:58.142Z,83.67
2018-05-21T04:51:07.277Z,84.39
2018-05-21T04:52:16.415Z,83.81
2018-05-21T04:53:25.827Z,83.62
2018-05-21T04:54:34.966Z,84.1
2018-05-21T04:55:43.827Z,83.53
2018-05-21T04:56:52.692Z,83.53
2018-05-21T04:58:01.551Z,84
2018-05-21T04:59:10.410Z,83.43
2018-05-21T05:00:19.270Z,83.62
2018-05-21T05:01:28.507Z,84.2
2018-05-21T05:02:37.367Z,82.86
2018-05-21T05:03:46.234Z,84.2
2018-05-21T05:04:55.095Z,83.81
2018-05-21T05:06:03.956Z,83.81
2018-05-21T05:07:13.252Z,83.43
2018-05-21T05:08:22.111Z,83.53
2018-05-21T05:09:30.971Z,83.81
2018-05-21T05:10:39.831Z,84.1
2018-05-21T05:11:48.691Z,83.24
2018-05-21T05:12:57.602Z,82
2018-05-21T05:14:06.465Z,83
2018-05-21T05:15:15.322Z,83.05
2018-05-21T05:16:24.183Z,82.95
2018-05-21T05:17:33.046Z,83.76
2018-05-21T05:18:42.157Z,83.18
2018-05-21T05:19:51.017Z,83.09
2018-05-21T05:20:59.897Z,82.71
2018-05-21T05:22:09.343Z,82.81
2018-05-21T05:23:18.210Z,83.18
2018-05-21T05:24:27.167Z,82.9
2018-05-21T05:25:36.029Z,83.09
2018-05-21T05:26:44.983Z,83.09
2018-05-21T05:27:53.749Z,83.18
2018-05-21T05:29:02.610Z,83.18
2018-05-21T05:30:11.572Z,83.18
2018-05-21T05:31:20.432Z,83.09
2018-05-21T05:32:29.290Z,83.76
2018-05-21T05:33:38.153Z,83.76
2018-05-21T05:34:47.290Z,83.38
2018-05-21T05:35:56.640Z,82.81
2018-05-21T05:37:05.391Z,82.52
2018-05-21T05:38:14.255Z,81.95
2018-05-21T05:39:23.118Z,82.56
2018-05-21T05:40:31.974Z,81.79
2018-05-21T05:41:40.986Z,82.08
2018-05-21T05:42:49.849Z,81.79
2018-05-21T05:43:58.711Z,81.7
2018-05-21T05:45:07.852Z,81.41
2018-05-21T05:46:16.713Z,81.79
2018-05-21T05:47:25.721Z,81.99
2018-05-21T05:48:34.586Z,81.7
2018-05-21T05:49:43.724Z,81.79
2018-05-21T05:50:52.589Z,82.56
2018-05-21T05:52:01.727Z,82.46
2018-05-21T05:53:10.586Z,82.12
2018-05-21T05:54:19.446Z,81.65
2018-05-21T05:55:28.310Z,81.65
2018-05-21T05:56:37.447Z,82.03
2018-05-21T05:57:46.311Z,82.22
2018-05-21T05:58:55.168Z,82.51
2018-05-21T06:00:04.031Z,82.79
2018-05-21T06:01:12.892Z,82.31
2018-05-21T06:02:21.754Z,81.93
2018-05-21T06:03:30.623Z,81.45
2018-05-21T06:04:39.941Z,81.16
2018-05-21T06:05:48.803Z,80.92
2018-05-21T06:06:57.940Z,80.06
2018-05-21T06:08:06.809Z,80.06
2018-05-21T06:09:15.665Z,80.54
2018-05-21T06:10:24.525Z,81.21
2018-05-21T06:11:33.951Z,81.11
2018-05-21T06:12:42.816Z,81.59
2018-05-21T06:13:51.956Z,81.68
2018-05-21T06:15:01.098Z,81.02
2018-05-21T06:16:10.108Z,81.49
2018-05-21T06:17:18.970Z,81.68
2018-05-21T06:18:28.113Z,81.68
2018-05-21T06:19:36.976Z,80.67
2018-05-21T06:20:45.837Z,81.05
2018-05-21T06:21:54.850Z,80.96
2018-05-21T06:23:03.714Z,80.87
2018-05-21T06:24:12.574Z,80.67
2018-05-21T06:25:21.436Z,81.34
2018-05-21T06:26:30.857Z,80.58
2018-05-21T06:27:39.964Z,80.67
2018-05-21T06:28:48.825Z,81.73
2018-05-21T06:29:57.688Z,82.11
2018-05-21T06:31:07.111Z,81.25
2018-05-21T06:32:15.970Z,80.48
2018-05-21T06:33:25.106Z,80.24
2018-05-21T06:34:34.296Z,79.85
2018-05-21T06:35:43.571Z,79.85
2018-05-21T06:36:52.719Z,79.6
2018-05-21T06:38:01.585Z,79.8
2018-05-21T06:39:10.444Z,79.22
2018-05-21T06:40:19.307Z,79.8
2018-05-21T06:41:28.171Z,79.41
2018-05-21T06:42:37.034Z,78.84
2018-05-21T06:43:46.174Z,79.51
2018-05-21T06:44:55.671Z,79.03
2018-05-21T06:46:04.812Z,78.3
2018-05-21T06:47:13.960Z,77.73
2018-05-21T06:48:22.826Z,78.69
2018-05-21T06:49:31.687Z,77.63
2018-05-21T06:50:40.951Z,76.96
2018-05-21T06:51:49.813Z,77.25
2018-05-21T06:52:58.960Z,77.15
2018-05-21T06:54:07.823Z,77.34
2018-05-21T06:55:16.683Z,77.44
2018-05-21T06:56:25.700Z,77.06
2018-05-21T06:57:34.564Z,76.39
2018-05-21T06:58:43.428Z,76.29
2018-05-21T06:59:53.047Z,75.14
2018-05-21T07:01:01.885Z,74.51
2018-05-21T07:02:10.760Z,74.6
2018-05-21T07:03:19.618Z,74.41
2018-05-21T07:04:28.758Z,73.74
2018-05-21T07:05:37.621Z,73.16
2018-05-21T07:06:46.484Z,73.83
2018-05-21T07:07:55.719Z,72.68
2018-05-21T07:09:05.159Z,72.59
2018-05-21T07:10:14.298Z,72.3
2018-05-21T07:11:23.162Z,72.3
2018-05-21T07:12:32.029Z,70.9
2018-05-21T07:13:41.344Z,70.13
2018-05-21T07:14:50.207Z,70.13
2018-05-21T07:15:59.069Z,69.65
2018-05-21T07:17:07.933Z,68.88
2018-05-21T07:18:17.418Z,68.21
2018-05-21T07:19:26.242Z,67.83
2018-05-21T07:20:35.104Z,68.21
2018-05-21T07:21:43.969Z,68.73
2018-05-21T07:22:53.111Z,69.49
2018-05-21T07:24:01.976Z,69.68
2018-05-21T07:25:10.940Z,67.92
2018-05-21T07:26:19.805Z,68.05
2018-05-21T07:27:28.956Z,67.38
2018-05-21T07:28:38.096Z,67.76
2018-05-21T07:29:46.957Z,68.02
2018-05-21T07:30:55.872Z,68.24
2018-05-21T07:32:04.737Z,68.05
2018-05-21T07:33:13.601Z,67.29
2018-05-21T07:34:22.473Z,67.76
2018-05-21T07:35:31.334Z,67.29
2018-05-21T07:36:40.355Z,66.33
2018-05-21T07:37:49.211Z,67.29
2018-05-21T07:38:58.360Z,66.23
2018-05-21T07:40:07.273Z,65.94
2018-05-21T07:41:16.135Z,64.5
2018-05-21T07:42:25.007Z,63.48
2018-05-21T07:43:33.872Z,64.05
2018-05-21T07:44:42.839Z,64.72
2018-05-21T07:45:52.020Z,65.01
2018-05-21T07:47:01.441Z,64.05
2018-05-21T07:48:10.684Z,63.67
2018-05-21T07:49:19.551Z,63.67
2018-05-21T07:50:28.415Z,62.71
2018-05-21T07:51:37.379Z,61.55
2018-05-21T07:52:46.148Z,61.94
2018-05-21T07:53:55.290Z,61.4
2018-05-21T07:55:04.155Z,61.87
2018-05-21T07:56:13.016Z,61.01
2018-05-21T07:57:21.880Z,60.91
2018-05-21T07:58:30.746Z,60.72
2018-05-21T07:59:39.709Z,59.76
2018-05-21T08:00:48.568Z,59.38
2018-05-21T08:01:57.429Z,59.28
2018-05-21T08:03:06.295Z,60.05
2018-05-21T08:04:15.155Z,59.38
2018-05-21T08:05:24.283Z,58.7
2018-05-21T08:06:33.033Z,59.79
2018-05-21T08:07:41.894Z,59.31
2018-05-21T08:08:50.760Z,59.12
2018-05-21T08:09:59.624Z,57.97
2018-05-21T08:11:08.640Z,57.97
2018-05-21T08:12:17.505Z,59.22
2018-05-21T08:13:26.368Z,58.73
2018-05-21T08:14:35.577Z,57.68
2018-05-21T08:15:44.813Z,57
2018-05-21T08:16:53.678Z,57.68
2018-05-21T08:18:02.540Z,57.87
2018-05-21T08:19:11.406Z,57.13
2018-05-21T08:20:20.544Z,56.74
2018-05-21T08:21:29.686Z,57.32
2018-05-21T08:22:38.554Z,57.13
2018-05-21T08:23:47.419Z,56.93
2018-05-21T08:24:56.281Z,55.88
2018-05-21T08:26:05.143Z,56.74
2018-05-21T08:27:14.296Z,56.93
2018-05-21T08:28:23.147Z,56.26
2018-05-21T08:29:32.009Z,55.88
2018-05-21T08:30:41.160Z,54.75
2018-05-21T08:31:50.022Z,54.94
2018-05-21T08:32:58.886Z,55.13
2018-05-21T08:34:07.899Z,55.43
2018-05-21T08:35:16.765Z,56.2
2018-05-21T08:36:25.628Z,54.75
2018-05-21T08:37:34.773Z,55.13
2018-05-21T08:38:43.913Z,54.27
2018-05-21T08:39:52.973Z,54.08
2018-05-21T08:41:01.837Z,54.08
2018-05-21T08:42:10.709Z,54.27
2018-05-21T08:43:19.850Z,54.27
2018-05-21T08:44:28.713Z,53.98
2018-05-21T08:45:37.682Z,54.27
2018-05-21T08:46:46.545Z,54
2018-05-21T08:47:55.407Z,54.78
2018-05-21T08:49:04.838Z,54.56
2018-05-21T08:50:13.705Z,54.75
2018-05-21T08:51:22.849Z,54.68
2018-05-21T08:52:31.717Z,54.2
2018-05-21T08:53:40.585Z,54.39
2018-05-21T08:54:49.447Z,54
2018-05-21T08:55:58.311Z,54
2018-05-21T08:57:07.611Z,53.91
2018-05-21T08:58:16.754Z,54.3
2018-05-21T08:59:25.619Z,54.71
2018-05-21T09:00:34.485Z,54.87
2018-05-21T09:01:43.347Z,54.39
2018-05-21T09:02:52.215Z,54.71
2018-05-21T09:04:01.080Z,54.32
2018-05-21T09:05:09.944Z,53.65
2018-05-21T09:06:18.809Z,54.03
2018-05-21T09:07:27.675Z,53.94
2018-05-21T09:08:36.988Z,54.71
2018-05-21T09:09:45.851Z,55.09
2018-05-21T09:10:54.715Z,54.74
2018-05-21T09:12:03.580Z,54.71
2018-05-21T09:13:12.444Z,54.03
2018-05-21T09:14:21.306Z,54.13
2018-05-21T09:15:30.448Z,54.03
2018-05-21T09:16:39.329Z,54.52
2018-05-21T09:17:48.554Z,54.03
2018-05-21T09:18:57.418Z,54.13
2018-05-21T09:20:06.821Z,54.03
2018-05-21T09:21:15.963Z,55.38
2018-05-21T09:22:24.827Z,54.35
2018-05-21T09:23:34.050Z,54.16
2018-05-21T09:24:43.191Z,53.96
2018-05-21T09:25:52.159Z,53.87
2018-05-21T09:27:01.027Z,53.96
2018-05-21T09:28:09.890Z,53.09
2018-05-21T09:29:19.032Z,52.83
2018-05-21T09:30:27.897Z,52.71
2018-05-21T09:31:36.823Z,52.55
2018-05-21T09:32:45.686Z,53.51
2018-05-21T09:33:54.554Z,52.73
2018-05-21T09:35:03.419Z,52.23
2018-05-21T09:36:12.283Z,51.97
2018-05-21T09:37:21.438Z,50.9
2018-05-21T09:38:30.303Z,50.81
2018-05-21T09:39:39.450Z,51.39
2018-05-21T09:40:48.871Z,51.68
2018-05-21T09:41:58.022Z,51.58
2018-05-21T09:43:07.340Z,52.35
2018-05-21T09:44:16.204Z,51.48
2018-05-21T09:45:25.075Z,52.16
2018-05-21T09:46:33.941Z,53.03
2018-05-21T09:47:43.094Z,52.64
2018-05-21T09:48:52.111Z,51.99
2018-05-21T09:50:00.975Z,52.57
2018-05-21T09:51:09.841Z,53.51
2018-05-21T09:52:18.705Z,53.15
2018-05-21T09:53:27.572Z,53.83
2018-05-21T09:54:36.789Z,53.25
2018-05-21T09:55:45.932Z,53.8
2018-05-21T09:56:54.799Z,53.73
2018-05-21T09:58:03.668Z,53.05
2018-05-21T09:59:12.533Z,53.63
2018-05-21T10:00:21.399Z,52.09
2018-05-21T10:01:30.266Z,52.47
2018-05-21T10:02:39.134Z,52.09
2018-05-21T10:03:48.001Z,50.86
2018-05-21T10:04:56.870Z,50.67
2018-05-21T10:06:05.737Z,50.96
2018-05-21T10:07:14.601Z,51.05
2018-05-21T10:08:23.752Z,50.86
2018-05-21T10:09:32.691Z,50.28
2018-05-21T10:10:41.481Z,50.09
2018-05-21T10:11:50.346Z,50.28
2018-05-21T10:12:59.214Z,48.54
2018-05-21T10:14:08.357Z,46.9
2018-05-21T10:15:17.226Z,46.13
2018-05-21T10:16:26.376Z,46.73
2018-05-21T10:17:35.394Z,47.31
2018-05-21T10:18:44.546Z,47.22
2018-05-21T10:19:53.692Z,46.73
2018-05-21T10:21:02.555Z,46.34
2018-05-21T10:22:11.703Z,46.54
2018-05-21T10:23:20.669Z,47.5
2018-05-21T10:24:29.537Z,46.83
2018-05-21T10:25:38.401Z,46.34
2018-05-21T10:26:47.266Z,46.92
2018-05-21T10:27:56.131Z,48.06
2018-05-21T10:29:05.098Z,45.67
2018-05-21T10:30:13.968Z,44.8
2018-05-21T10:31:22.833Z,45.57
2018-05-21T10:32:31.699Z,46.15
2018-05-21T10:33:40.844Z,46.75
2018-05-21T10:34:49.756Z,46.56
2018-05-21T10:35:58.899Z,45.89
2018-05-21T10:37:07.832Z,46.27
2018-05-21T10:38:17.001Z,46.95
2018-05-21T10:39:26.143Z,46.66
2018-05-21T10:40:35.014Z,45.79
2018-05-21T10:41:43.877Z,45.4
2018-05-21T10:42:52.744Z,45.21
2018-05-21T10:44:01.614Z,45.79
2018-05-21T10:45:10.479Z,44.73
2018-05-21T10:46:19.698Z,44.15
2018-05-21T10:47:28.847Z,44.84
2018-05-21T10:48:37.713Z,44.15
2018-05-21T10:49:46.580Z,44.26
2018-05-21T10:50:55.448Z,44.17
2018-05-21T10:52:04.644Z,44.07
2018-05-21T10:53:13.510Z,44.82
2018-05-21T10:54:22.374Z,44.46
2018-05-21T10:55:31.240Z,44.75
2018-05-21T10:56:40.385Z,45.62
2018-05-21T10:57:49.352Z,44.75
2018-05-21T10:58:58.493Z,44.07
2018-05-21T11:00:07.356Z,45.04
2018-05-21T11:01:16.223Z,44.29
2018-05-21T11:02:25.092Z,43.41
2018-05-21T11:03:34.385Z,43.8
2018-05-21T11:04:43.391Z,44.38
2018-05-21T11:05:52.405Z,45.16
2018-05-21T11:07:01.272Z,45.16
2018-05-21T11:08:10.141Z,45.45
2018-05-21T11:09:19.006Z,45.06
2018-05-21T11:10:28.151Z,44.96
2018-05-21T11:11:37.023Z,45.35
2018-05-21T11:12:46.166Z,45.25
2018-05-21T11:13:55.030Z,44.46
2018-05-21T11:15:04.222Z,45.45
2018-05-21T11:16:13.369Z,43.92
2018-05-21T11:17:22.511Z,41.99
2018-05-21T11:18:31.655Z,41.89
2018-05-21T11:19:40.804Z,42.66
2018-05-21T11:20:49.822Z,41.7
2018-05-21T11:21:58.963Z,41.99
2018-05-21T11:23:07.836Z,40.92
2018-05-21T11:24:16.975Z,41.31
2018-05-21T11:25:25.844Z,41.11
2018-05-21T11:26:35.036Z,40.63
2018-05-21T11:27:43.901Z,40.25
2018-05-21T11:28:52.768Z,41.6
2018-05-21T11:30:01.914Z,41.82
2018-05-21T11:31:10.831Z,42.2
2018-05-21T11:32:19.748Z,42.4
2018-05-21T11:33:28.612Z,42.78
2018-05-21T11:34:37.478Z,42.49
2018-05-21T11:35:46.358Z,42.3
2018-05-21T11:36:55.220Z,42.59
2018-05-21T11:38:04.131Z,42.97
2018-05-21T11:39:12.996Z,42.49
2018-05-21T11:40:21.863Z,42.51
2018-05-21T11:41:31.006Z,42.32
2018-05-21T11:42:39.871Z,42.51
2018-05-21T11:43:49.270Z,42.32
2018-05-21T11:44:58.413Z,42.13
2018-05-21T11:46:07.284Z,42.03
2018-05-21T11:47:16.149Z,42.03
2018-05-21T11:48:25.576Z,41.93
2018-05-21T11:49:34.594Z,42.03
2018-05-21T11:50:43.523Z,40.79
2018-05-21T11:51:53.063Z,41.55
2018-05-21T11:53:01.930Z,40.38
2018-05-21T11:54:10.800Z,40.67
2018-05-21T11:55:19.669Z,40.31
2018-05-21T11:56:28.537Z,40.96
2018-05-21T11:57:37.407Z,41.17
2018-05-21T11:58:46.550Z,41.47
2018-05-21T11:59:55.425Z,41.37
2018-05-21T12:01:04.342Z,41.37
2018-05-21T12:02:13.215Z,40.71
2018-05-21T12:03:22.646Z,39.45
2018-05-21T12:04:31.794Z,39.06
2018-05-21T12:05:40.945Z,38.48
2018-05-21T12:06:49.965Z,39.24
2018-05-21T12:07:58.836Z,39.94
2018-05-21T12:09:07.710Z,39.26
2018-05-21T12:10:16.586Z,39.45
2018-05-21T12:11:25.453Z,39.55
2018-05-21T12:12:34.427Z,39.28
2018-05-21T12:13:43.868Z,39.08
2018-05-21T12:14:52.733Z,39.37
2018-05-21T12:16:01.603Z,39.28
2018-05-21T12:17:10.477Z,38.99
2018-05-21T12:18:19.453Z,38.5
2018-05-21T12:19:28.326Z,39.18
2018-05-21T12:20:37.199Z,39.76
2018-05-21T12:21:46.073Z,39.57
2018-05-21T12:22:55.226Z,39.37
2018-05-21T12:24:04.301Z,39.29
2018-05-21T12:25:13.452Z,39.29
2018-05-21T12:26:22.328Z,39.59
2018-05-21T12:27:31.201Z,39.88
2018-05-21T12:28:40.142Z,39.59
2018-05-21T12:29:49.747Z,39.2
2018-05-21T12:30:58.624Z,39.29
2018-05-21T12:32:07.498Z,39.78
2018-05-21T12:33:16.375Z,39.22
2018-05-21T12:34:25.251Z,39.03
2018-05-21T12:35:34.132Z,38.73
2018-05-21T12:36:42.999Z,39.22
2018-05-21T12:37:51.874Z,38.93
2018-05-21T12:39:00.751Z,39.51
2018-05-21T12:40:09.628Z,38.17
2018-05-21T12:41:18.505Z,39.04
2018-05-21T12:42:27.382Z,38.93
2018-05-21T12:43:36.535Z,38.46
2018-05-21T12:44:45.414Z,38.07
2018-05-21T12:45:54.292Z,37.9
2018-05-21T12:47:03.501Z,38.19
2018-05-21T12:48:12.380Z,38.09
2018-05-21T12:49:21.260Z,38.29
2018-05-21T12:50:30.139Z,38.19
2018-05-21T12:51:39.019Z,38.19
2018-05-21T12:52:48.331Z,38.57
2018-05-21T12:53:57.209Z,38.39
2018-05-21T12:55:06.089Z,36.63
2018-05-21T12:56:14.974Z,36.34
2018-05-21T12:57:23.852Z,36.81
2018-05-21T12:58:33.079Z,36.63
2018-05-21T12:59:41.956Z,36.73
2018-05-21T13:00:51.118Z,36.16
2018-05-21T13:01:59.996Z,36.75
2018-05-21T13:03:08.878Z,37.04
2018-05-21T13:04:17.760Z,36.38
2018-05-21T13:05:26.642Z,36.77
2018-05-21T13:06:35.519Z,36.08
2018-05-21T13:07:44.399Z,36.47
2018-05-21T13:08:53.275Z,36.77
2018-05-21T13:10:02.155Z,36.67
2018-05-21T13:11:11.034Z,36.96
2018-05-21T13:12:19.914Z,36.77
2018-05-21T13:13:28.795Z,36.28
2018-05-21T13:14:37.678Z,36.47
2018-05-21T13:15:46.907Z,37.06
2018-05-21T13:16:56.070Z,36
2018-05-21T13:18:04.955Z,36.4
2018-05-21T13:19:14.394Z,35.71
2018-05-21T13:20:23.275Z,36.49
2018-05-21T13:21:32.154Z,36.1
2018-05-21T13:22:41.038Z,35.89
2018-05-21T13:23:50.206Z,35.89
2018-05-21T13:24:59.088Z,36.28
2018-05-21T13:26:08.254Z,36.18
2018-05-21T13:27:17.286Z,36.18
2018-05-21T13:28:26.450Z,35.13
2018-05-21T13:29:35.323Z,35.71
2018-05-21T13:30:44.477Z,35.23
2018-05-21T13:31:53.360Z,35.71
2018-05-21T13:33:02.667Z,34.53
2018-05-21T13:34:11.551Z,34.84
2018-05-21T13:35:20.432Z,35.61
2018-05-21T13:36:29.315Z,35.71
2018-05-21T13:37:38.751Z,35.05
2018-05-21T13:38:48.262Z,35.44
2018-05-21T13:39:57.140Z,35.53
2018-05-21T13:41:06.019Z,33.9
2018-05-21T13:42:14.900Z,33.01
2018-05-21T13:43:24.072Z,33.02
2018-05-21T13:44:32.954Z,33.12
2018-05-21T13:45:42.416Z,33.49
2018-05-21T13:46:51.302Z,33.49
2018-05-21T13:48:00.181Z,33.8
2018-05-21T13:49:09.060Z,33.8
2018-05-21T13:50:18.387Z,33.02
2018-05-21T13:51:27.544Z,32.94
2018-05-21T13:52:36.557Z,33.04
2018-05-21T13:53:45.723Z,33.33
2018-05-21T13:54:54.604Z,33.04
2018-05-21T13:56:03.538Z,33.62
2018-05-21T13:57:12.419Z,33.15
2018-05-21T13:58:21.578Z,33.06
2018-05-21T13:59:30.458Z,32.78
2018-05-21T14:00:39.338Z,32.76
2018-05-21T14:01:48.658Z,32.08
2018-05-21T14:02:57.539Z,32.78
2018-05-21T14:04:06.698Z,32.29
2018-05-21T14:05:15.581Z,32.68
2018-05-21T14:06:24.467Z,32.5
2018-05-21T14:07:33.772Z,32.11
2018-05-21T14:08:43.232Z,31.74
2018-05-21T14:09:52.391Z,30.66
2018-05-21T14:11:01.274Z,30.57
2018-05-21T14:12:10.436Z,31.13
2018-05-21T14:13:19.468Z,30.86
2018-05-21T14:14:28.351Z,30.76
2018-05-21T14:15:37.518Z,30.58
2018-05-21T14:16:46.674Z,30.1
2018-05-21T14:17:55.557Z,29.71
2018-05-21T14:19:04.724Z,29.69
2018-05-21T14:20:13.887Z,30.66
2018-05-21T14:21:22.770Z,29.31
2018-05-21T14:22:31.655Z,30.47
2018-05-21T14:23:40.536Z,30.08
2018-05-21T14:24:49.419Z,29.98
2018-05-21T14:25:58.586Z,30.37
2018-05-21T14:27:07.471Z,29.98
2018-05-21T14:28:16.633Z,29.69
2018-05-21T14:29:25.859Z,30.08
2018-05-21T14:30:35.139Z,28.82
2018-05-21T14:31:44.021Z,28.82
2018-05-21T14:32:52.903Z,28.92
2018-05-21T14:34:01.787Z,29.69
2018-05-21T14:35:10.671Z,28.72
2018-05-21T14:36:19.846Z,27.55
2018-05-21T14:37:28.723Z,27.76
2018-05-21T14:38:37.608Z,27.28
2018-05-21T14:39:46.497Z,27.67
2018-05-21T14:40:55.659Z,27.59
2018-05-21T14:42:04.989Z,27.98
2018-05-21T14:43:13.881Z,27.29
2018-05-21T14:44:22.767Z,26.92
2018-05-21T14:45:31.661Z,27.67
2018-05-21T14:46:40.546Z,28.34
2018-05-21T14:47:49.711Z,27.76
2018-05-21T14:48:58.872Z,27.86
2018-05-21T14:50:07.761Z,28.23
2018-05-21T14:51:16.648Z,27.37
2018-05-21T14:52:25.525Z,27.76